• Join FlightAware (Why Join?)
  • Login
  • US Flag 
 
04:45AM EST


 

Airport Tracker/Info


-or-


 

Live Flight TrackerFlight Track Log ✈ UAL256 ✈ 26-Apr-2013 ✈ KDEN - KORD

Flight Track Log - Related Links

Times and Time Zones

All times are in EDT time to prevent confusion due to time zone crossing. See the UAL256 flight status page for this flight to view local times or setup timezone preferences in your user account.

Time Position Orientation Groundspeed Altitude Reporting Facility
EDT Latitude Longitude Course Direction KTS MPH feet Rate Location/Type
09:15PM 39.8833 -104.6000 57° Northeast 172 198 6,500  Level Denver TRACON
09:16PM 39.8833 -104.5333 90° East 231 266 8,100 2,040 Climbing Denver TRACON
09:17PM 39.9167 -104.4333 66° East 284 327 10,400 1,740 Climbing Denver TRACON
09:18PM 39.9571 -104.0788 66° East  Level FlightAware Approximate
09:18PM 39.9253 -104.3686 80° East 303 349 11,400  Level Denver Center
09:19PM 39.9836 -103.9315 79° East  Level FlightAware Approximate
09:19PM 39.9575 -104.2194 74° East 349 402 14,800  Level Denver Center
09:20PM 40.0078 -103.7845 57° Northeast  Level FlightAware Approximate
09:20PM 39.9808 -104.0767 78° East 377 434 17,300  Level Denver Center
09:21PM 39.9922 -103.9689 82° East 390 449 19,100 2,460 Climbing Denver Center
09:22PM 40.0178 -103.7858 80° East 397 457 22,400 2,340 Climbing Denver Center
09:23PM 40.0397 -103.6600 77° East 382 440 24,000 1,560 Climbing Denver Center
09:24PM 40.0589 -103.5353 79° East 409 471 25,600 1,920 Climbing Denver Center
09:25PM 40.0919 -103.3361 78° East 418 481 28,000 1,860 Climbing Denver Center
09:26PM 40.1167 -103.1831 78° East 428 493 29,500 1,320 Climbing Denver Center
09:27PM 40.1408 -103.0272 78° East 431 496 30,800 1,380 Climbing Denver Center
09:28PM 40.1658 -102.8692 78° East 439 505 32,400 1,740 Climbing Denver Center
09:29PM 40.1903 -102.7119 78° East 437 503 34,400 1,200 Climbing Denver Center
09:30PM 40.2139 -102.5594 78° East 428 493 34,900 900 Climbing Denver Center
09:31PM 40.2406 -102.3831 79° East 440 506 36,300 1,200 Climbing Denver Center
09:32PM 40.2639 -102.2361 78° East 432 497 37,400 840 Climbing Denver Center
09:33PM 40.2892 -102.0625 79° East 434 499 38,100 480 Climbing Denver Center
09:34PM 40.3078 -101.9378 79° East 438 504 38,500 420 Climbing Denver Center
09:35PM 40.3342 -101.7603 79° East 446 513 39,000 240 Climbing Denver Center
09:36PM 40.3600 -101.5819 79° East 448 516 39,000  Level Denver Center
09:37PM 40.3819 -101.4311 79° East 443 510 39,000  Level Denver Center
09:38PM 40.4075 -101.2531 79° East 446 513 39,000  Level Denver Center
09:40PM 40.4283 -101.1014 80° East 444 511 39,000  Level Denver Center
09:41PM 40.4519 -100.9497 78° East 446 513 39,000  Level Denver Center
09:42PM 40.5064 -100.7819 67° East 450 518 39,100  Climbing Denver Center
09:43PM 40.5667 -100.6203 64° Northeast 445 512 39,000 -60 Descending Denver Center
09:44PM 40.6275 -100.4583 64° Northeast 448 516 39,000  Level Denver Center
09:45PM 40.6789 -100.3175 64° Northeast 449 517 39,000  Level Denver Center
09:46PM 40.7467 -100.1311 64° Northeast 445 512 39,000  Level Denver Center
09:47PM 40.7972 -99.9903 65° Northeast 446 513 39,000  Level Denver Center
09:48PM 40.8594 -99.8214 64° Northeast 443 510 39,000  Level Denver Center
09:49PM 40.9128 -99.6728 65° Northeast 446 513 39,000  Level Denver Center
09:50PM 40.9664 -99.5233 65° Northeast 449 517 39,000  Level Denver Center
09:51PM 41.0200 -99.3725 65° Northeast 451 519 39,000  Level Denver Center
09:52PM 41.0744 -99.2206 65° Northeast 454 522 39,000  Level Denver Center
09:53PM 41.1175 -99.0986 65° Northeast 455 524 39,000  Level Minneapolis Center
09:54PM 41.1714 -98.9467 65° Northeast 457 526 39,000  Level Minneapolis Center
09:54PM 41.1906 -98.8878 67° East 459 528 39,000  Level Denver Center
09:55PM 41.2253 -98.7911 64° Northeast 460 529 39,000  Level Minneapolis Center
09:56PM 41.2892 -98.6081 65° Northeast 457 526 39,000  Level Minneapolis Center
09:57PM 41.3450 -98.4419 66° East 453 521 39,000  Level Minneapolis Center
09:58PM 41.3889 -98.2842 70° East 453 521 39,000 -120 Level Minneapolis Center
09:59PM 41.4186 -98.1011 78° East 456 525 38,800 -600 Descending Minneapolis Center
10:00PM 41.4458 -97.9364 78° East 456 525 37,800 -900 Descending Minneapolis Center
10:01PM 41.4739 -97.7728 77° East 453 521 37,000 -420 Descending Minneapolis Center
10:02PM 41.5006 -97.6103 78° East 450 518 37,000  Level Minneapolis Center
10:03PM 41.5269 -97.4483 78° East 447 514 37,000  Level Minneapolis Center
10:04PM 41.5519 -97.2894 78° East 440 506 37,000  Level Minneapolis Center
10:05PM 41.5781 -97.1303 78° East 438 504 37,000  Level Minneapolis Center
10:06PM 41.6028 -96.9706 78° East 439 505 37,000  Level Minneapolis Center
10:08PM 41.6328 -96.7758 78° East 443 510 37,000  Level Minneapolis Center
10:09PM 41.6622 -96.5806 79° East 445 512 37,000  Level Minneapolis Center
10:10PM 41.6831 -96.4492 78° East 446 513 37,000  Level Minneapolis Center
10:11PM 41.7133 -96.2508 78° East 450 518 37,000  Level Minneapolis Center
10:12PM 41.7425 -96.0511 79° East 450 518 37,000  Level Minneapolis Center
10:13PM 41.7664 -95.8850 79° East 450 518 37,000  Level Minneapolis Center
10:14PM 41.7903 -95.7192 79° East 451 519 37,000  Level Minneapolis Center
10:15PM 41.8147 -95.5525 79° East 453 521 37,000  Level Minneapolis Center
10:16PM 41.8386 -95.3861 79° East 454 522 37,000  Level Minneapolis Center
10:17PM 41.8622 -95.2181 79° East 456 525 37,000  Level Minneapolis Center
10:18PM 41.8806 -95.0836 80° East 457 526 37,000 -60 Level Minneapolis Center
10:19PM 41.9069 -94.8842 80° East 453 521 36,900  Descending Minneapolis Center
10:20PM 41.9353 -94.6831 79° East 455 524 37,000  Climbing Minneapolis Center
10:21PM 41.9572 -94.5144 80° East 458 527 37,000  Level Minneapolis Center
10:22PM 41.9800 -94.3444 80° East 461 531 37,100  Climbing Minneapolis Center
10:23PM 42.0033 -94.1736 80° East 463 533 37,000 -60 Descending Minneapolis Center
10:24PM 42.0264 -94.0069 79° East 458 527 37,000  Level Minneapolis Center
10:25PM 42.0447 -93.8511 81° East 458 527 37,000  Level Minneapolis Center
10:26PM 42.0703 -93.6517 80° East 458 527 37,000  Level Minneapolis Center
10:28PM 42.0961 -93.4497 80° East 461 531 37,000  Level Minneapolis Center
10:29PM 42.1167 -93.2814 81° East 461 531 37,000  Level Minneapolis Center
10:30PM 42.1375 -93.1111 81° East 463 533 37,000  Level Minneapolis Center
10:31PM 42.1572 -92.9422 81° East 463 533 37,000  Level Minneapolis Center
10:32PM 42.1781 -92.7714 81° East 464 534 37,000 -480 Level Minneapolis Center
10:33PM 42.2022 -92.5672 81° East 465 535 36,100 -1,500 Descending Minneapolis Center
10:34PM 42.2217 -92.4000 81° East 461 531 34,000 -1,620 Descending Minneapolis Center
10:35PM 42.2361 -92.2672 82° East 458 527 32,900 -1,380 Descending Minneapolis Center
10:36PM 42.2597 -92.0608 81° East 464 534 31,200 -1,140 Descending Minneapolis Center
10:36PM 42.2714 -91.9542 82° East 474 545 31,000 -120 Descending Chicago Center
10:37PM 42.2897 -91.7856 82° East 464 534 31,000  Level Chicago Center
10:38PM 42.3117 -91.5819 82° East 463 533 31,000 -60 Level Chicago Center
10:39PM 42.3294 -91.4136 82° East 462 532 30,900 -960 Descending Chicago Center
10:40PM 42.3467 -91.2467 82° East 456 525 29,100 -1,860 Descending Chicago Center
10:41PM 42.3633 -91.0856 82° East 444 511 27,200 -1,080 Descending Chicago Center
10:42PM 42.3814 -90.9061 82° East 435 501 27,000 -120 Descending Chicago Center
10:43PM 42.3950 -90.7686 82° East 432 497 27,000 -600 Level Chicago Center
10:45PM 42.4139 -90.5808 82° East 425 489 25,900 -1,080 Descending Chicago Center
10:46PM 42.4228 -90.4233 86° East 427 491 24,900 -960 Descending Chicago Center
10:47PM 42.4200 -90.2578 91° East 445 512 24,000 -480 Descending Chicago Center
10:48PM 42.4172 -90.0950 91° East 440 506 24,000  Level Chicago Center
10:49PM 42.4144 -89.9039 91° East 440 506 24,000 -900 Level Chicago Center
10:50PM 42.4097 -89.7403 92° East 438 504 22,200 -1,860 Descending Chicago Center
10:51PM 42.4067 -89.5806 91° East 429 494 20,300 -1,920 Descending Chicago Center
10:52PM 42.4022 -89.4228 92° East 421 484 18,400 -1,740 Descending Chicago Center
10:53PM 42.3978 -89.2717 92° East 407 468 16,800 -1,740 Descending Chicago Center
10:54PM 42.3947 -89.1253 92° East 393 452 14,900 -1,920 Descending Chicago Center
10:55PM 42.3903 -88.9836 92° East 380 437 13,000 -1,800 Descending Chicago Center
10:56PM 42.3856 -88.8514 93° East 357 411 11,300 -1,380 Descending Chicago Center
10:57PM 42.3817 -88.7303 92° East 328 377 10,300 -960 Descending Chicago Center
10:58PM 42.3783 -88.6211 92° East 299 344 9,400 -660 Descending Chicago Center
10:59PM 42.3706 -88.4942 95° East 292 336 9,000 -300 Descending Chicago Center
11:00PM 42.3444 -88.3897 109° East 293 337 8,800 -840 Descending Chicago Center
11:01PM 42.3153 -88.3011 114° Southeast 293 337 7,400 -900 Descending Chicago Center
11:02PM 42.2578 -88.2397 142° Southeast 268 308 7,000 -540 Descending Chicago Center
11:03PM 42.2100 -88.1808 138° Southeast 241 277 6,400 -1,020 Descending Chicago Center
11:04PM 42.1622 -88.1286 141° Southeast 227 261 5,000 -1,440 Descending Chicago Center
11:05PM 42.1167 -88.0667 135° Southeast 225 259 3,700 -1,440 Descending Chicago TRACON